sensor_id;sensor_type;location;lat;lon;timestamp;P1;durP1;ratioP1;P2;durP2;ratioP2
5831;SDS011;50943;51.448;7.646;2022-12-18T00:01:31;31.37;;;14.40;;
5831;SDS011;50943;51.448;7.646;2022-12-18T00:03:58;34.63;;;16.23;;
5831;SDS011;50943;51.448;7.646;2022-12-18T00:06:25;35.73;;;15.30;;
5831;SDS011;50943;51.448;7.646;2022-12-18T00:08:54;39.20;;;16.03;;
5831;SDS011;50943;51.448;7.646;2022-12-18T00:11:22;30.77;;;14.17;;
5831;SDS011;50943;51.448;7.646;2022-12-18T00:13:49;27.57;;;12.43;;
5831;SDS011;50943;51.448;7.646;2022-12-18T00:16:16;40.60;;;14.30;;
5831;SDS011;50943;51.448;7.646;2022-12-18T00:18:43;29.93;;;14.53;;
5831;SDS011;50943;51.448;7.646;2022-12-18T00:21:10;33.47;;;13.93;;
5831;SDS011;50943;51.448;7.646;2022-12-18T00:23:37;36.87;;;16.90;;
5831;SDS011;50943;51.448;7.646;2022-12-18T00:26:07;28.57;;;13.20;;
5831;SDS011;50943;51.448;7.646;2022-12-18T00:28:35;25.40;;;13.50;;
5831;SDS011;50943;51.448;7.646;2022-12-18T00:31:01;26.03;;;11.20;;
5831;SDS011;50943;51.448;7.646;2022-12-18T00:33:28;27.23;;;11.57;;
5831;SDS011;50943;51.448;7.646;2022-12-18T00:35:54;25.00;;;11.60;;
5831;SDS011;50943;51.448;7.646;2022-12-18T00:38:21;22.67;;;10.67;;
5831;SDS011;50943;51.448;7.646;2022-12-18T00:40:48;22.63;;;10.70;;
5831;SDS011;50943;51.448;7.646;2022-12-18T00:43:15;26.63;;;11.63;;
5831;SDS011;50943;51.448;7.646;2022-12-18T00:45:41;22.70;;;11.23;;
5831;SDS011;50943;51.448;7.646;2022-12-18T00:48:07;25.93;;;10.90;;
5831;SDS011;50943;51.448;7.646;2022-12-18T00:50:34;19.67;;;9.80;;
5831;SDS011;50943;51.448;7.646;2022-12-18T00:53:00;22.50;;;10.10;;
5831;SDS011;50943;51.448;7.646;2022-12-18T00:55:27;24.97;;;10.80;;
5831;SDS011;50943;51.448;7.646;2022-12-18T00:57:53;27.17;;;9.43;;
5831;SDS011;50943;51.448;7.646;2022-12-18T01:00:21;27.27;;;10.47;;
5831;SDS011;50943;51.448;7.646;2022-12-18T01:02:48;24.30;;;11.17;;
5831;SDS011;50943;51.448;7.646;2022-12-18T01:05:15;26.20;;;11.90;;
5831;SDS011;50943;51.448;7.646;2022-12-18T01:07:41;16.90;;;8.63;;
5831;SDS011;50943;51.448;7.646;2022-12-18T01:10:09;22.17;;;9.57;;
5831;SDS011;50943;51.448;7.646;2022-12-18T01:12:37;22.50;;;10.70;;
5831;SDS011;50943;51.448;7.646;2022-12-18T01:15:05;20.37;;;8.53;;
5831;SDS011;50943;51.448;7.646;2022-12-18T01:17:33;17.03;;;7.80;;
5831;SDS011;50943;51.448;7.646;2022-12-18T01:19:59;18.33;;;9.90;;
5831;SDS011;50943;51.448;7.646;2022-12-18T01:22:26;20.37;;;10.47;;
5831;SDS011;50943;51.448;7.646;2022-12-18T01:24:52;21.43;;;10.23;;
5831;SDS011;50943;51.448;7.646;2022-12-18T01:27:18;16.33;;;8.63;;
5831;SDS011;50943;51.448;7.646;2022-12-18T01:29:45;18.83;;;7.10;;
5831;SDS011;50943;51.448;7.646;2022-12-18T01:32:11;23.57;;;8.70;;
5831;SDS011;50943;51.448;7.646;2022-12-18T01:34:39;16.20;;;7.27;;
5831;SDS011;50943;51.448;7.646;2022-12-18T01:37:06;17.83;;;7.70;;
5831;SDS011;50943;51.448;7.646;2022-12-18T01:39:32;8.70;;;5.43;;
5831;SDS011;50943;51.448;7.646;2022-12-18T01:41:59;14.20;;;6.80;;
5831;SDS011;50943;51.448;7.646;2022-12-18T01:47:15;12.07;;;5.97;;
5831;SDS011;50943;51.448;7.646;2022-12-18T01:49:45;17.73;;;7.53;;
5831;SDS011;50943;51.448;7.646;2022-12-18T01:52:12;12.90;;;5.70;;
5831;SDS011;50943;51.448;7.646;2022-12-18T01:54:39;14.93;;;6.60;;
5831;SDS011;50943;51.448;7.646;2022-12-18T01:57:06;19.20;;;6.03;;
5831;SDS011;50943;51.448;7.646;2022-12-18T01:59:32;9.50;;;5.10;;
5831;SDS011;50943;51.448;7.646;2022-12-18T02:01:59;11.37;;;5.30;;
5831;SDS011;50943;51.448;7.646;2022-12-18T02:04:27;11.33;;;5.50;;
5831;SDS011;50943;51.448;7.646;2022-12-18T02:06:57;14.67;;;5.47;;
5831;SDS011;50943;51.448;7.646;2022-12-18T02:09:28;13.37;;;5.30;;
5831;SDS011;50943;51.448;7.646;2022-12-18T02:11:59;8.70;;;5.40;;
5831;SDS011;50943;51.448;7.646;2022-12-18T02:14:28;12.10;;;5.97;;
5831;SDS011;50943;51.448;7.646;2022-12-18T02:16:58;15.23;;;6.00;;
5831;SDS011;50943;51.448;7.646;2022-12-18T02:19:41;11.27;;;5.13;;
5831;SDS011;50943;51.448;7.646;2022-12-18T02:22:14;11.57;;;6.17;;
5831;SDS011;50943;51.448;7.646;2022-12-18T02:24:48;12.43;;;6.20;;
5831;SDS011;50943;51.448;7.646;2022-12-18T02:27:19;13.03;;;6.40;;
5831;SDS011;50943;51.448;7.646;2022-12-18T02:29:48;11.10;;;6.43;;
5831;SDS011;50943;51.448;7.646;2022-12-18T02:32:17;13.23;;;5.73;;
5831;SDS011;50943;51.448;7.646;2022-12-18T02:34:46;13.70;;;6.30;;
5831;SDS011;50943;51.448;7.646;2022-12-18T02:37:14;12.00;;;5.17;;
5831;SDS011;50943;51.448;7.646;2022-12-18T02:39:42;15.37;;;6.70;;
5831;SDS011;50943;51.448;7.646;2022-12-18T02:42:09;12.90;;;5.67;;
5831;SDS011;50943;51.448;7.646;2022-12-18T02:44:43;12.43;;;5.90;;
5831;SDS011;50943;51.448;7.646;2022-12-18T02:47:10;11.10;;;4.47;;
5831;SDS011;50943;51.448;7.646;2022-12-18T02:49:40;11.83;;;5.67;;
5831;SDS011;50943;51.448;7.646;2022-12-18T02:52:11;11.67;;;4.83;;
5831;SDS011;50943;51.448;7.646;2022-12-18T02:54:44;9.00;;;4.87;;
5831;SDS011;50943;51.448;7.646;2022-12-18T02:57:16;8.10;;;4.07;;
5831;SDS011;50943;51.448;7.646;2022-12-18T02:59:49;10.80;;;5.30;;
5831;SDS011;50943;51.448;7.646;2022-12-18T03:02:20;10.13;;;5.40;;
5831;SDS011;50943;51.448;7.646;2022-12-18T03:04:49;9.23;;;4.90;;
5831;SDS011;50943;51.448;7.646;2022-12-18T03:07:18;8.83;;;4.77;;
5831;SDS011;50943;51.448;7.646;2022-12-18T03:09:47;14.20;;;4.50;;
5831;SDS011;50943;51.448;7.646;2022-12-18T03:12:16;15.50;;;4.60;;
5831;SDS011;50943;51.448;7.646;2022-12-18T03:14:52;12.67;;;5.93;;
5831;SDS011;50943;51.448;7.646;2022-12-18T03:17:20;11.47;;;5.30;;
5831;SDS011;50943;51.448;7.646;2022-12-18T03:19:48;10.47;;;5.27;;
5831;SDS011;50943;51.448;7.646;2022-12-18T03:22:15;11.27;;;5.60;;
5831;SDS011;50943;51.448;7.646;2022-12-18T03:24:42;15.37;;;5.43;;
5831;SDS011;50943;51.448;7.646;2022-12-18T03:27:09;15.27;;;6.40;;
5831;SDS011;50943;51.448;7.646;2022-12-18T03:29:38;10.17;;;4.93;;
5831;SDS011;50943;51.448;7.646;2022-12-18T03:32:08;6.47;;;4.27;;
5831;SDS011;50943;51.448;7.646;2022-12-18T03:34:39;11.80;;;6.43;;
5831;SDS011;50943;51.448;7.646;2022-12-18T03:37:07;14.03;;;6.40;;
5831;SDS011;50943;51.448;7.646;2022-12-18T03:39:33;14.97;;;5.00;;
5831;SDS011;50943;51.448;7.646;2022-12-18T03:42:01;8.67;;;4.80;;
5831;SDS011;50943;51.448;7.646;2022-12-18T03:44:32;8.43;;;4.10;;
5831;SDS011;50943;51.448;7.646;2022-12-18T03:47:05;9.40;;;4.77;;
5831;SDS011;50943;51.448;7.646;2022-12-18T03:49:35;10.53;;;4.87;;
5831;SDS011;50943;51.448;7.646;2022-12-18T03:52:04;9.20;;;4.97;;
5831;SDS011;50943;51.448;7.646;2022-12-18T03:54:31;10.07;;;5.23;;
5831;SDS011;50943;51.448;7.646;2022-12-18T03:57:01;12.23;;;5.50;;
5831;SDS011;50943;51.448;7.646;2022-12-18T03:59:29;14.07;;;5.70;;
5831;SDS011;50943;51.448;7.646;2022-12-18T04:01:56;11.13;;;5.47;;
5831;SDS011;50943;51.448;7.646;2022-12-18T04:04:24;8.97;;;4.40;;
5831;SDS011;50943;51.448;7.646;2022-12-18T04:06:52;9.60;;;3.80;;
5831;SDS011;50943;51.448;7.646;2022-12-18T04:09:18;10.77;;;4.13;;
5831;SDS011;50943;51.448;7.646;2022-12-18T04:11:45;11.63;;;4.67;;
5831;SDS011;50943;51.448;7.646;2022-12-18T04:14:12;14.57;;;5.00;;
5831;SDS011;50943;51.448;7.646;2022-12-18T04:16:38;10.97;;;5.27;;
5831;SDS011;50943;51.448;7.646;2022-12-18T04:19:05;12.33;;;5.70;;
5831;SDS011;50943;51.448;7.646;2022-12-18T04:21:32;9.63;;;5.10;;
5831;SDS011;50943;51.448;7.646;2022-12-18T04:23:59;8.10;;;4.00;;
5831;SDS011;50943;51.448;7.646;2022-12-18T04:26:26;10.73;;;4.27;;
5831;SDS011;50943;51.448;7.646;2022-12-18T04:28:52;9.63;;;4.40;;
5831;SDS011;50943;51.448;7.646;2022-12-18T04:31:19;9.17;;;4.03;;
5831;SDS011;50943;51.448;7.646;2022-12-18T04:33:45;7.17;;;4.00;;
5831;SDS011;50943;51.448;7.646;2022-12-18T04:36:12;9.50;;;4.00;;
5831;SDS011;50943;51.448;7.646;2022-12-18T04:38:38;9.23;;;4.27;;
5831;SDS011;50943;51.448;7.646;2022-12-18T04:41:06;9.03;;;4.40;;
5831;SDS011;50943;51.448;7.646;2022-12-18T04:43:33;6.73;;;3.33;;
5831;SDS011;50943;51.448;7.646;2022-12-18T04:46:03;9.37;;;3.97;;
5831;SDS011;50943;51.448;7.646;2022-12-18T04:48:29;6.17;;;3.93;;
5831;SDS011;50943;51.448;7.646;2022-12-18T04:50:56;6.90;;;3.60;;
5831;SDS011;50943;51.448;7.646;2022-12-18T04:53:22;10.67;;;3.43;;
5831;SDS011;50943;51.448;7.646;2022-12-18T04:55:49;8.93;;;4.50;;
5831;SDS011;50943;51.448;7.646;2022-12-18T04:58:16;12.13;;;4.93;;
5831;SDS011;50943;51.448;7.646;2022-12-18T05:00:43;11.10;;;4.23;;
5831;SDS011;50943;51.448;7.646;2022-12-18T05:03:09;8.00;;;4.07;;
5831;SDS011;50943;51.448;7.646;2022-12-18T05:05:35;7.20;;;4.07;;
5831;SDS011;50943;51.448;7.646;2022-12-18T05:08:02;5.80;;;3.83;;
5831;SDS011;50943;51.448;7.646;2022-12-18T05:10:29;10.07;;;4.40;;
5831;SDS011;50943;51.448;7.646;2022-12-18T05:12:55;10.77;;;3.63;;
5831;SDS011;50943;51.448;7.646;2022-12-18T05:15:27;7.50;;;3.63;;
5831;SDS011;50943;51.448;7.646;2022-12-18T05:17:54;11.97;;;3.80;;
5831;SDS011;50943;51.448;7.646;2022-12-18T05:20:20;12.97;;;4.50;;
5831;SDS011;50943;51.448;7.646;2022-12-18T05:22:47;8.87;;;4.23;;
5831;SDS011;50943;51.448;7.646;2022-12-18T05:25:13;12.90;;;3.90;;
5831;SDS011;50943;51.448;7.646;2022-12-18T05:27:40;10.23;;;4.20;;
5831;SDS011;50943;51.448;7.646;2022-12-18T05:30:07;8.70;;;3.80;;
5831;SDS011;50943;51.448;7.646;2022-12-18T05:32:35;7.83;;;3.50;;
5831;SDS011;50943;51.448;7.646;2022-12-18T05:35:02;7.03;;;3.80;;
5831;SDS011;50943;51.448;7.646;2022-12-18T05:37:28;7.67;;;3.30;;
5831;SDS011;50943;51.448;7.646;2022-12-18T05:39:55;7.83;;;4.00;;
5831;SDS011;50943;51.448;7.646;2022-12-18T05:42:22;8.93;;;3.37;;
5831;SDS011;50943;51.448;7.646;2022-12-18T05:44:48;8.10;;;3.83;;
5831;SDS011;50943;51.448;7.646;2022-12-18T05:47:15;6.20;;;3.10;;
5831;SDS011;50943;51.448;7.646;2022-12-18T05:49:43;8.17;;;3.97;;
5831;SDS011;50943;51.448;7.646;2022-12-18T05:52:09;6.00;;;2.80;;
5831;SDS011;50943;51.448;7.646;2022-12-18T05:54:36;8.70;;;3.57;;
5831;SDS011;50943;51.448;7.646;2022-12-18T05:57:02;7.93;;;3.97;;
5831;SDS011;50943;51.448;7.646;2022-12-18T05:59:28;7.27;;;3.50;;
5831;SDS011;50943;51.448;7.646;2022-12-18T06:01:55;7.70;;;3.50;;
5831;SDS011;50943;51.448;7.646;2022-12-18T06:04:22;10.27;;;4.00;;
5831;SDS011;50943;51.448;7.646;2022-12-18T06:06:51;7.20;;;3.80;;
5831;SDS011;50943;51.448;7.646;2022-12-18T06:09:17;7.13;;;4.13;;
5831;SDS011;50943;51.448;7.646;2022-12-18T06:11:44;10.90;;;4.20;;
5831;SDS011;50943;51.448;7.646;2022-12-18T06:14:10;7.90;;;4.03;;
5831;SDS011;50943;51.448;7.646;2022-12-18T06:16:36;10.10;;;4.00;;
5831;SDS011;50943;51.448;7.646;2022-12-18T06:19:04;8.53;;;4.13;;
5831;SDS011;50943;51.448;7.646;2022-12-18T06:21:31;8.03;;;4.60;;
5831;SDS011;50943;51.448;7.646;2022-12-18T06:23:59;7.57;;;4.47;;
5831;SDS011;50943;51.448;7.646;2022-12-18T06:26:25;14.83;;;6.10;;
5831;SDS011;50943;51.448;7.646;2022-12-18T06:28:52;7.23;;;4.40;;
5831;SDS011;50943;51.448;7.646;2022-12-18T06:31:18;10.00;;;4.93;;
5831;SDS011;50943;51.448;7.646;2022-12-18T06:33:45;12.40;;;6.80;;
5831;SDS011;50943;51.448;7.646;2022-12-18T06:36:11;12.87;;;6.83;;
5831;SDS011;50943;51.448;7.646;2022-12-18T06:38:39;17.70;;;5.50;;
5831;SDS011;50943;51.448;7.646;2022-12-18T06:41:07;13.10;;;5.90;;
5831;SDS011;50943;51.448;7.646;2022-12-18T06:43:34;14.23;;;4.77;;
5831;SDS011;50943;51.448;7.646;2022-12-18T06:46:01;11.80;;;5.67;;
5831;SDS011;50943;51.448;7.646;2022-12-18T06:48:27;15.47;;;6.10;;
5831;SDS011;50943;51.448;7.646;2022-12-18T06:50:54;14.47;;;6.10;;
5831;SDS011;50943;51.448;7.646;2022-12-18T06:53:21;9.73;;;5.20;;
5831;SDS011;50943;51.448;7.646;2022-12-18T06:55:47;13.70;;;6.07;;
5831;SDS011;50943;51.448;7.646;2022-12-18T06:58:15;11.47;;;4.80;;
5831;SDS011;50943;51.448;7.646;2022-12-18T07:00:42;8.47;;;4.77;;
5831;SDS011;50943;51.448;7.646;2022-12-18T07:03:08;14.00;;;5.13;;
5831;SDS011;50943;51.448;7.646;2022-12-18T07:05:39;11.07;;;4.70;;
5831;SDS011;50943;51.448;7.646;2022-12-18T07:08:05;15.30;;;5.17;;
5831;SDS011;50943;51.448;7.646;2022-12-18T07:10:32;12.53;;;4.80;;
5831;SDS011;50943;51.448;7.646;2022-12-18T07:12:58;12.73;;;5.30;;
5831;SDS011;50943;51.448;7.646;2022-12-18T07:15:26;12.03;;;5.43;;
5831;SDS011;50943;51.448;7.646;2022-12-18T07:17:52;8.37;;;4.53;;
5831;SDS011;50943;51.448;7.646;2022-12-18T07:20:19;11.77;;;4.67;;
5831;SDS011;50943;51.448;7.646;2022-12-18T07:22:45;14.30;;;4.70;;
5831;SDS011;50943;51.448;7.646;2022-12-18T07:25:12;9.07;;;4.57;;
5831;SDS011;50943;51.448;7.646;2022-12-18T07:27:39;18.23;;;6.73;;
5831;SDS011;50943;51.448;7.646;2022-12-18T07:30:06;15.83;;;6.33;;
5831;SDS011;50943;51.448;7.646;2022-12-18T07:32:34;18.20;;;8.10;;
5831;SDS011;50943;51.448;7.646;2022-12-18T07:35:00;17.60;;;7.87;;
5831;SDS011;50943;51.448;7.646;2022-12-18T07:37:27;17.43;;;7.13;;
5831;SDS011;50943;51.448;7.646;2022-12-18T07:39:53;16.37;;;7.60;;
5831;SDS011;50943;51.448;7.646;2022-12-18T07:42:20;13.60;;;5.90;;
5831;SDS011;50943;51.448;7.646;2022-12-18T07:45:00;17.20;;;7.13;;
5831;SDS011;50943;51.448;7.646;2022-12-18T07:47:27;15.60;;;6.10;;
5831;SDS011;50943;51.448;7.646;2022-12-18T07:49:57;22.73;;;8.40;;
5831;SDS011;50943;51.448;7.646;2022-12-18T07:52:24;29.20;;;10.37;;
5831;SDS011;50943;51.448;7.646;2022-12-18T07:54:50;15.93;;;6.60;;
5831;SDS011;50943;51.448;7.646;2022-12-18T07:57:17;20.93;;;9.40;;
5831;SDS011;50943;51.448;7.646;2022-12-18T07:59:44;11.53;;;6.57;;
5831;SDS011;50943;51.448;7.646;2022-12-18T08:02:10;18.23;;;7.37;;
5831;SDS011;50943;51.448;7.646;2022-12-18T08:04:37;19.93;;;7.90;;
5831;SDS011;50943;51.448;7.646;2022-12-18T08:07:05;18.73;;;7.40;;
5831;SDS011;50943;51.448;7.646;2022-12-18T08:09:31;39.93;;;13.50;;
5831;SDS011;50943;51.448;7.646;2022-12-18T08:11:58;37.17;;;12.73;;
5831;SDS011;50943;51.448;7.646;2022-12-18T08:14:24;43.33;;;14.37;;
5831;SDS011;50943;51.448;7.646;2022-12-18T08:16:51;42.10;;;12.90;;
5831;SDS011;50943;51.448;7.646;2022-12-18T08:19:17;23.13;;;8.97;;
5831;SDS011;50943;51.448;7.646;2022-12-18T08:21:43;22.10;;;8.90;;
5831;SDS011;50943;51.448;7.646;2022-12-18T08:24:11;14.20;;;5.70;;
5831;SDS011;50943;51.448;7.646;2022-12-18T08:26:37;14.27;;;6.87;;
5831;SDS011;50943;51.448;7.646;2022-12-18T08:29:04;19.00;;;4.97;;
5831;SDS011;50943;51.448;7.646;2022-12-18T08:31:30;3.90;;;1.87;;
5831;SDS011;50943;51.448;7.646;2022-12-18T08:33:57;8.40;;;3.40;;
5831;SDS011;50943;51.448;7.646;2022-12-18T08:36:24;10.50;;;4.30;;
5831;SDS011;50943;51.448;7.646;2022-12-18T08:38:51;13.83;;;4.90;;
5831;SDS011;50943;51.448;7.646;2022-12-18T08:41:19;8.13;;;4.17;;
5831;SDS011;50943;51.448;7.646;2022-12-18T08:43:47;10.23;;;4.37;;
5831;SDS011;50943;51.448;7.646;2022-12-18T08:46:32;7.90;;;3.03;;
5831;SDS011;50943;51.448;7.646;2022-12-18T08:48:59;9.23;;;4.17;;
5831;SDS011;50943;51.448;7.646;2022-12-18T08:51:25;6.27;;;3.40;;
5831;SDS011;50943;51.448;7.646;2022-12-18T08:53:52;12.10;;;3.73;;
5831;SDS011;50943;51.448;7.646;2022-12-18T08:56:19;11.43;;;4.20;;
5831;SDS011;50943;51.448;7.646;2022-12-18T08:58:46;10.77;;;3.03;;
5831;SDS011;50943;51.448;7.646;2022-12-18T09:01:13;6.80;;;3.50;;
5831;SDS011;50943;51.448;7.646;2022-12-18T09:03:39;9.20;;;3.17;;
5831;SDS011;50943;51.448;7.646;2022-12-18T09:06:06;9.70;;;4.63;;
5831;SDS011;50943;51.448;7.646;2022-12-18T09:08:33;11.97;;;4.10;;
5831;SDS011;50943;51.448;7.646;2022-12-18T09:10:59;8.60;;;5.00;;
5831;SDS011;50943;51.448;7.646;2022-12-18T09:13:27;8.47;;;4.13;;
5831;SDS011;50943;51.448;7.646;2022-12-18T09:15:54;8.90;;;4.27;;
5831;SDS011;50943;51.448;7.646;2022-12-18T09:18:21;9.53;;;4.93;;
5831;SDS011;50943;51.448;7.646;2022-12-18T09:20:47;9.70;;;5.33;;
5831;SDS011;50943;51.448;7.646;2022-12-18T09:23:15;13.40;;;5.60;;
5831;SDS011;50943;51.448;7.646;2022-12-18T09:25:41;9.90;;;4.40;;
5831;SDS011;50943;51.448;7.646;2022-12-18T09:28:10;5.70;;;1.90;;
5831;SDS011;50943;51.448;7.646;2022-12-18T09:30:38;7.67;;;3.80;;
5831;SDS011;50943;51.448;7.646;2022-12-18T09:33:05;6.10;;;2.67;;
5831;SDS011;50943;51.448;7.646;2022-12-18T09:35:32;7.20;;;2.73;;
5831;SDS011;50943;51.448;7.646;2022-12-18T09:37:58;4.80;;;2.33;;
5831;SDS011;50943;51.448;7.646;2022-12-18T09:40:26;5.53;;;2.33;;
5831;SDS011;50943;51.448;7.646;2022-12-18T09:42:57;5.47;;;2.90;;
5831;SDS011;50943;51.448;7.646;2022-12-18T09:45:26;5.67;;;2.10;;
5831;SDS011;50943;51.448;7.646;2022-12-18T09:47:54;6.87;;;3.20;;
5831;SDS011;50943;51.448;7.646;2022-12-18T09:50:23;6.00;;;2.60;;
5831;SDS011;50943;51.448;7.646;2022-12-18T09:52:51;7.07;;;3.03;;
5831;SDS011;50943;51.448;7.646;2022-12-18T09:55:21;8.03;;;3.20;;
5831;SDS011;50943;51.448;7.646;2022-12-18T09:57:50;6.67;;;2.80;;
5831;SDS011;50943;51.448;7.646;2022-12-18T10:00:19;7.07;;;3.50;;
5831;SDS011;50943;51.448;7.646;2022-12-18T10:02:46;8.83;;;3.73;;
5831;SDS011;50943;51.448;7.646;2022-12-18T10:05:15;6.07;;;3.00;;
5831;SDS011;50943;51.448;7.646;2022-12-18T10:07:44;10.63;;;3.00;;
5831;SDS011;50943;51.448;7.646;2022-12-18T10:10:16;6.17;;;3.10;;
5831;SDS011;50943;51.448;7.646;2022-12-18T10:12:46;4.83;;;3.10;;
5831;SDS011;50943;51.448;7.646;2022-12-18T10:15:19;7.83;;;3.27;;
5831;SDS011;50943;51.448;7.646;2022-12-18T10:17:50;4.70;;;2.20;;
5831;SDS011;50943;51.448;7.646;2022-12-18T10:20:21;6.23;;;2.80;;
5831;SDS011;50943;51.448;7.646;2022-12-18T10:22:50;6.00;;;3.10;;
5831;SDS011;50943;51.448;7.646;2022-12-18T10:25:21;3.73;;;2.30;;
5831;SDS011;50943;51.448;7.646;2022-12-18T10:27:49;6.63;;;3.10;;
5831;SDS011;50943;51.448;7.646;2022-12-18T10:30:18;5.80;;;3.20;;
5831;SDS011;50943;51.448;7.646;2022-12-18T10:32:45;6.90;;;4.03;;
5831;SDS011;50943;51.448;7.646;2022-12-18T10:35:14;4.77;;;2.50;;
5831;SDS011;50943;51.448;7.646;2022-12-18T10:37:58;6.60;;;2.37;;
5831;SDS011;50943;51.448;7.646;2022-12-18T10:40:25;5.43;;;2.17;;
5831;SDS011;50943;51.448;7.646;2022-12-18T10:43:02;5.20;;;2.80;;
5831;SDS011;50943;51.448;7.646;2022-12-18T10:45:29;4.63;;;2.30;;
5831;SDS011;50943;51.448;7.646;2022-12-18T10:47:55;6.07;;;3.23;;
5831;SDS011;50943;51.448;7.646;2022-12-18T10:50:24;20.57;;;7.50;;
5831;SDS011;50943;51.448;7.646;2022-12-18T10:52:55;10.70;;;3.90;;
5831;SDS011;50943;51.448;7.646;2022-12-18T10:55:22;4.53;;;2.20;;
5831;SDS011;50943;51.448;7.646;2022-12-18T10:57:48;6.67;;;3.33;;
5831;SDS011;50943;51.448;7.646;2022-12-18T11:00:22;7.70;;;2.90;;
5831;SDS011;50943;51.448;7.646;2022-12-18T11:02:50;7.47;;;3.00;;
5831;SDS011;50943;51.448;7.646;2022-12-18T11:05:24;6.60;;;3.43;;
5831;SDS011;50943;51.448;7.646;2022-12-18T11:07:51;9.20;;;4.10;;
5831;SDS011;50943;51.448;7.646;2022-12-18T11:10:21;13.70;;;4.00;;
5831;SDS011;50943;51.448;7.646;2022-12-18T11:12:48;7.37;;;3.20;;
5831;SDS011;50943;51.448;7.646;2022-12-18T11:15:15;8.70;;;3.90;;
5831;SDS011;50943;51.448;7.646;2022-12-18T11:17:42;7.27;;;3.10;;
5831;SDS011;50943;51.448;7.646;2022-12-18T11:20:18;6.80;;;2.70;;
5831;SDS011;50943;51.448;7.646;2022-12-18T11:22:53;5.20;;;2.30;;
5831;SDS011;50943;51.448;7.646;2022-12-18T11:25:21;8.57;;;2.70;;
5831;SDS011;50943;51.448;7.646;2022-12-18T11:27:48;6.53;;;2.43;;
5831;SDS011;50943;51.448;7.646;2022-12-18T11:30:20;5.87;;;3.13;;
5831;SDS011;50943;51.448;7.646;2022-12-18T11:32:47;5.67;;;3.20;;
5831;SDS011;50943;51.448;7.646;2022-12-18T11:35:15;6.20;;;3.17;;
5831;SDS011;50943;51.448;7.646;2022-12-18T11:37:43;6.73;;;3.20;;
5831;SDS011;50943;51.448;7.646;2022-12-18T11:40:13;11.00;;;5.13;;
5831;SDS011;50943;51.448;7.646;2022-12-18T11:42:44;6.63;;;3.30;;
5831;SDS011;50943;51.448;7.646;2022-12-18T11:45:21;6.83;;;3.60;;
5831;SDS011;50943;51.448;7.646;2022-12-18T11:47:52;7.30;;;3.40;;
5831;SDS011;50943;51.448;7.646;2022-12-18T11:50:20;4.97;;;3.00;;
5831;SDS011;50943;51.448;7.646;2022-12-18T11:52:48;5.97;;;3.27;;
5831;SDS011;50943;51.448;7.646;2022-12-18T11:55:15;10.13;;;4.40;;
5831;SDS011;50943;51.448;7.646;2022-12-18T11:57:46;8.43;;;3.17;;
5831;SDS011;50943;51.448;7.646;2022-12-18T12:00:16;9.13;;;3.40;;
5831;SDS011;50943;51.448;7.646;2022-12-18T12:02:53;5.10;;;2.70;;
5831;SDS011;50943;51.448;7.646;2022-12-18T12:05:27;7.50;;;3.57;;
5831;SDS011;50943;51.448;7.646;2022-12-18T12:07:57;6.93;;;3.27;;
5831;SDS011;50943;51.448;7.646;2022-12-18T12:10:30;7.10;;;3.40;;
5831;SDS011;50943;51.448;7.646;2022-12-18T12:13:03;9.63;;;5.07;;
5831;SDS011;50943;51.448;7.646;2022-12-18T12:15:34;25.30;;;7.80;;
5831;SDS011;50943;51.448;7.646;2022-12-18T12:18:06;13.27;;;5.90;;
5831;SDS011;50943;51.448;7.646;2022-12-18T12:20:39;7.47;;;3.60;;
5831;SDS011;50943;51.448;7.646;2022-12-18T12:23:12;7.73;;;4.27;;
5831;SDS011;50943;51.448;7.646;2022-12-18T12:25:42;9.57;;;4.50;;
5831;SDS011;50943;51.448;7.646;2022-12-18T12:28:15;7.43;;;3.90;;
5831;SDS011;50943;51.448;7.646;2022-12-18T12:30:45;7.10;;;3.50;;
5831;SDS011;50943;51.448;7.646;2022-12-18T12:33:17;6.60;;;3.83;;
5831;SDS011;50943;51.448;7.646;2022-12-18T12:35:47;13.80;;;5.70;;
5831;SDS011;50943;51.448;7.646;2022-12-18T12:38:17;8.43;;;4.40;;
5831;SDS011;50943;51.448;7.646;2022-12-18T12:40:46;7.53;;;3.47;;
5831;SDS011;50943;51.448;7.646;2022-12-18T12:43:27;7.87;;;3.20;;
5831;SDS011;50943;51.448;7.646;2022-12-18T12:45:54;5.90;;;3.10;;
5831;SDS011;50943;51.448;7.646;2022-12-18T12:48:24;7.30;;;3.70;;
5831;SDS011;50943;51.448;7.646;2022-12-18T12:50:53;19.20;;;6.20;;
5831;SDS011;50943;51.448;7.646;2022-12-18T12:53:23;10.93;;;5.00;;
5831;SDS011;50943;51.448;7.646;2022-12-18T12:55:51;7.90;;;3.70;;
5831;SDS011;50943;51.448;7.646;2022-12-18T12:58:19;6.77;;;4.20;;
5831;SDS011;50943;51.448;7.646;2022-12-18T13:00:55;16.70;;;4.57;;
5831;SDS011;50943;51.448;7.646;2022-12-18T13:03:26;7.13;;;3.90;;
5831;SDS011;50943;51.448;7.646;2022-12-18T13:05:56;5.90;;;3.20;;
5831;SDS011;50943;51.448;7.646;2022-12-18T13:08:24;12.63;;;5.43;;
5831;SDS011;50943;51.448;7.646;2022-12-18T13:10:52;7.20;;;4.10;;
5831;SDS011;50943;51.448;7.646;2022-12-18T13:13:47;8.67;;;4.50;;
5831;SDS011;50943;51.448;7.646;2022-12-18T13:16:14;7.30;;;4.67;;
5831;SDS011;50943;51.448;7.646;2022-12-18T13:18:47;11.23;;;5.27;;
5831;SDS011;50943;51.448;7.646;2022-12-18T13:21:16;7.73;;;4.00;;
5831;SDS011;50943;51.448;7.646;2022-12-18T13:23:45;8.97;;;4.10;;
5831;SDS011;50943;51.448;7.646;2022-12-18T13:26:30;10.23;;;4.47;;
5831;SDS011;50943;51.448;7.646;2022-12-18T13:28:58;6.70;;;3.70;;
5831;SDS011;50943;51.448;7.646;2022-12-18T13:34:14;5.83;;;3.80;;
5831;SDS011;50943;51.448;7.646;2022-12-18T13:36:42;8.93;;;5.33;;
5831;SDS011;50943;51.448;7.646;2022-12-18T13:39:09;8.73;;;4.57;;
5831;SDS011;50943;51.448;7.646;2022-12-18T13:41:36;7.00;;;3.80;;
5831;SDS011;50943;51.448;7.646;2022-12-18T13:44:10;7.50;;;4.30;;
5831;SDS011;50943;51.448;7.646;2022-12-18T13:46:42;8.20;;;4.07;;
5831;SDS011;50943;51.448;7.646;2022-12-18T13:49:16;15.00;;;5.10;;
5831;SDS011;50943;51.448;7.646;2022-12-18T13:51:47;7.20;;;3.93;;
5831;SDS011;50943;51.448;7.646;2022-12-18T13:54:17;8.20;;;3.60;;
5831;SDS011;50943;51.448;7.646;2022-12-18T13:56:45;6.70;;;3.37;;
5831;SDS011;50943;51.448;7.646;2022-12-18T13:59:13;9.07;;;3.33;;
5831;SDS011;50943;51.448;7.646;2022-12-18T14:01:44;7.60;;;3.10;;
5831;SDS011;50943;51.448;7.646;2022-12-18T14:04:11;10.23;;;5.40;;
5831;SDS011;50943;51.448;7.646;2022-12-18T14:06:39;7.33;;;4.27;;
5831;SDS011;50943;51.448;7.646;2022-12-18T14:09:09;12.50;;;4.80;;
5831;SDS011;50943;51.448;7.646;2022-12-18T14:11:37;10.20;;;4.43;;
5831;SDS011;50943;51.448;7.646;2022-12-18T14:14:04;14.03;;;8.10;;
5831;SDS011;50943;51.448;7.646;2022-12-18T14:16:32;7.70;;;4.10;;
5831;SDS011;50943;51.448;7.646;2022-12-18T14:19:00;8.83;;;4.27;;
5831;SDS011;50943;51.448;7.646;2022-12-18T14:21:27;9.40;;;4.60;;
5831;SDS011;50943;51.448;7.646;2022-12-18T14:24:06;9.17;;;4.87;;
5831;SDS011;50943;51.448;7.646;2022-12-18T14:26:33;12.17;;;6.60;;
5831;SDS011;50943;51.448;7.646;2022-12-18T14:29:00;8.13;;;4.27;;
5831;SDS011;50943;51.448;7.646;2022-12-18T14:31:27;13.80;;;5.87;;
5831;SDS011;50943;51.448;7.646;2022-12-18T14:33:54;16.60;;;8.37;;
5831;SDS011;50943;51.448;7.646;2022-12-18T14:36:21;8.90;;;4.83;;
5831;SDS011;50943;51.448;7.646;2022-12-18T14:38:49;10.23;;;5.67;;
5831;SDS011;50943;51.448;7.646;2022-12-18T14:41:18;17.50;;;7.70;;
5831;SDS011;50943;51.448;7.646;2022-12-18T14:43:45;9.23;;;5.17;;
5831;SDS011;50943;51.448;7.646;2022-12-18T14:46:28;10.53;;;5.27;;
5831;SDS011;50943;51.448;7.646;2022-12-18T14:48:55;14.37;;;5.33;;
5831;SDS011;50943;51.448;7.646;2022-12-18T14:51:23;10.13;;;5.30;;
5831;SDS011;50943;51.448;7.646;2022-12-18T14:53:52;16.43;;;6.23;;
5831;SDS011;50943;51.448;7.646;2022-12-18T14:56:22;14.03;;;5.83;;
5831;SDS011;50943;51.448;7.646;2022-12-18T14:58:49;11.17;;;5.73;;
5831;SDS011;50943;51.448;7.646;2022-12-18T15:01:20;10.57;;;5.57;;
5831;SDS011;50943;51.448;7.646;2022-12-18T15:03:48;10.60;;;5.23;;
5831;SDS011;50943;51.448;7.646;2022-12-18T15:06:15;17.17;;;7.30;;